Time;durP1;ratioP1;P1;durP2;ratioP2;P2;SDS_P1;SDS_P2;PMS_P1;PMS_P2;Temp;Humidity;BMP_temperature;BMP_pressure;BME280_temperature;BME280_humidity;BME280_pressure;Samples;Min_cycle;Max_cycle;Signal;HPM_P1;HPM_P2
2021/12/25 00:01:48;;;;;;;29.73;17.20;;;2.50;85.30;;;;;;5038912;28;20025;-45
2021/12/25 00:04:14;;;;;;;29.98;17.55;;;2.60;85.30;;;;;;5038528;28;20052;-45
2021/12/25 00:06:40;;;;;;;31.00;17.10;;;2.60;85.40;;;;;;5039147;28;20026;-44
2021/12/25 00:09:07;;;;;;;29.73;16.13;;;2.70;85.40;;;;;;5039127;28;20124;-47
2021/12/25 00:11:33;;;;;;;28.17;16.52;;;2.70;85.30;;;;;;5039089;28;20029;-45
2021/12/25 00:13:59;;;;;;;27.30;15.57;;;2.70;84.90;;;;;;5039032;28;20039;-44
2021/12/25 00:16:24;;;;;;;27.88;16.25;;;2.70;84.80;;;;;;5039080;28;20025;-46
2021/12/25 00:18:50;;;;;;;30.08;17.27;;;2.80;84.90;;;;;;5038996;28;20124;-46
2021/12/25 00:21:16;;;;;;;28.25;17.35;;;2.80;85.00;;;;;;5038910;28;20441;-46
2021/12/25 00:23:41;;;;;;;29.65;15.90;;;2.80;85.30;;;;;;5038674;28;20038;-45
2021/12/25 00:26:13;;;;;;;32.08;16.33;;;2.80;85.50;;;;;;5038720;28;20048;-48
2021/12/25 00:31:44;;;;;;;25.05;15.52;;;2.90;85.10;;;;;;5038765;28;20028;-46
2021/12/25 00:33:59;;;;;;;26.98;16.42;;;2.90;84.80;;;;;;5038281;28;20125;-43
2021/12/25 00:36:26;;;;;;;29.10;16.40;;;3.00;84.70;;;;;;5038846;28;20030;-43
2021/12/25 00:38:53;;;;;;;26.10;15.85;;;3.00;84.70;;;;;;5038609;28;20125;-45
2021/12/25 00:41:22;;;;;;;28.30;15.73;;;3.00;84.70;;;;;;5038595;28;20417;-49
2021/12/25 00:43:48;;;;;;;24.85;14.85;;;3.00;84.50;;;;;;5038315;28;20441;-45
2021/12/25 00:46:14;;;;;;;27.90;15.57;;;3.00;84.40;;;;;;5038667;28;20033;-45
2021/12/25 00:48:40;;;;;;;26.30;15.68;;;3.00;84.40;;;;;;5038078;28;20032;-43
2021/12/25 00:51:06;;;;;;;28.25;16.27;;;3.10;84.50;;;;;;5037802;28;20025;-49
2021/12/25 00:53:32;;;;;;;27.75;15.63;;;3.10;84.60;;;;;;5038266;28;20026;-48
2021/12/25 00:55:58;;;;;;;27.80;15.93;;;3.10;84.80;;;;;;5037888;28;20084;-44
2021/12/25 00:58:24;;;;;;;30.30;16.52;;;3.10;85.00;;;;;;5038502;28;20056;-48
2021/12/25 01:00:51;;;;;;;28.45;16.65;;;3.10;85.90;;;;;;5037575;28;20052;-44
2021/12/25 01:03:16;;;;;;;28.25;15.93;;;3.00;85.60;;;;;;5038131;28;20029;-42
2021/12/25 01:05:42;;;;;;;30.52;15.93;;;3.00;85.90;;;;;;5037963;28;20021;-45
2021/12/25 01:08:10;;;;;;;27.67;16.73;;;3.00;86.10;;;;;;5038219;28;20026;-44
2021/12/25 01:10:36;;;;;;;27.52;17.17;;;3.00;86.40;;;;;;5038259;28;20033;-44
2021/12/25 01:13:11;;;;;;;29.92;16.70;;;3.00;86.70;;;;;;5037986;28;20349;-46
2021/12/25 01:19:24;;;;;;;30.77;17.38;;;3.00;87.20;;;;;;5038034;28;20025;-45
2021/12/25 01:31:21;;;;;;;31.58;17.70;;;3.00;87.80;;;;;;5037369;28;20029;-50
2021/12/25 01:36:37;;;;;;;30.13;16.45;;;3.00;87.90;;;;;;5037495;28;20026;-44
2021/12/25 01:49:39;;;;;;;27.42;15.73;;;3.00;88.50;;;;;;5037272;28;20033;-43
2021/12/25 01:52:06;;;;;;;27.73;16.63;;;3.00;88.70;;;;;;5037296;28;20029;-43
2021/12/25 01:54:32;;;;;;;26.25;16.73;;;3.00;88.90;;;;;;5037195;28;20360;-47
2021/12/25 01:56:58;;;;;;;28.50;16.83;;;3.00;89.00;;;;;;5036868;28;20051;-43
2021/12/25 01:59:24;;;;;;;29.50;16.70;;;3.00;89.10;;;;;;5036599;28;20037;-46
2021/12/25 02:01:50;;;;;;;32.22;16.75;;;3.00;89.20;;;;;;5036702;28;20056;-46
2021/12/25 02:04:16;;;;;;;29.88;17.58;;;3.10;89.30;;;;;;5036947;28;20033;-43
2021/12/25 02:06:42;;;;;;;28.98;17.05;;;3.00;89.40;;;;;;5036814;28;20087;-46
2021/12/25 02:09:07;;;;;;;28.65;15.68;;;3.10;89.60;;;;;;5036856;28;20037;-43
2021/12/25 02:11:33;;;;;;;28.15;16.05;;;3.10;89.70;;;;;;5036707;28;20365;-43
2021/12/25 02:13:59;;;;;;;28.95;16.00;;;3.10;89.90;;;;;;5036946;28;20044;-45
2021/12/25 02:16:37;;;;;;;26.25;16.60;;;3.20;90.20;;;;;;5036552;28;20048;-46
2021/12/25 02:19:08;;;;;;;26.58;15.50;;;3.20;90.00;;;;;;5036568;28;20045;-43
2021/12/25 02:21:37;;;;;;;26.58;15.93;;;3.20;90.00;;;;;;5036713;28;20030;-46
2021/12/25 02:24:09;;;;;;;27.88;14.90;;;3.30;90.00;;;;;;5036395;28;20041;-44
2021/12/25 02:26:37;;;;;;;23.40;14.45;;;3.40;90.00;;;;;;5036580;28;20364;-43
2021/12/25 02:29:03;;;;;;;32.03;16.75;;;3.40;89.90;;;;;;5036280;28;20045;-44
2021/12/25 02:31:29;;;;;;;25.52;15.38;;;3.40;89.80;;;;;;5036495;28;20366;-44
2021/12/25 02:33:55;;;;;;;23.95;14.40;;;3.50;89.60;;;;;;5036130;28;20041;-43
2021/12/25 02:36:21;;;;;;;25.88;15.48;;;3.50;89.30;;;;;;5036380;28;20033;-44
2021/12/25 02:38:47;;;;;;;25.52;15.38;;;3.60;89.10;;;;;;5036100;28;20036;-45
2021/12/25 02:41:13;;;;;;;26.10;15.15;;;3.60;88.80;;;;;;5036374;28;20035;-45
2021/12/25 02:43:42;;;;;;;26.90;15.00;;;3.60;88.70;;;;;;5036092;28;20505;-46
2021/12/25 02:46:08;;;;;;;29.58;15.73;;;3.60;88.70;;;;;;5036063;28;20029;-46
2021/12/25 02:48:37;;;;;;;26.77;14.50;;;3.70;88.40;;;;;;5036079;28;20026;-46
2021/12/25 02:51:03;;;;;;;24.45;14.73;;;3.70;88.50;;;;;;5036212;28;20036;-48
2021/12/25 02:53:29;;;;;;;25.83;15.15;;;3.70;88.30;;;;;;5036061;28;20406;-47
2021/12/25 02:55:55;;;;;;;24.27;14.23;;;3.80;88.30;;;;;;5035877;28;20052;-45
2021/12/25 02:58:20;;;;;;;26.90;15.23;;;3.80;88.00;;;;;;5036020;28;20064;-45
2021/12/25 03:00:49;;;;;;;26.92;15.45;;;3.80;87.90;;;;;;5035704;28;20414;-45
2021/12/25 03:03:15;;;;;;;26.52;14.32;;;3.90;87.80;;;;;;5036045;28;20029;-42
2021/12/25 03:05:41;;;;;;;24.30;15.00;;;3.90;87.70;;;;;;5035488;28;20442;-45
2021/12/25 03:08:08;;;;;;;25.38;14.38;;;3.90;87.50;;;;;;5036097;28;20028;-45
2021/12/25 03:10:36;;;;;;;23.30;13.55;;;4.00;87.40;;;;;;5035566;28;20064;-50
2021/12/25 03:13:17;;;;;;;23.60;13.95;;;4.00;87.30;;;;;;5039465;28;20025;-45
2021/12/25 03:15:46;;;;;;;22.38;13.75;;;4.00;87.20;;;;;;5042152;28;20491;-44
2021/12/25 03:18:17;;;;;;;23.38;14.20;;;4.10;87.20;;;;;;5042477;28;20030;-45
2021/12/25 03:20:46;;;;;;;;;;;4.10;86.80;;;;;;5042645;28;20029;-44
2021/12/25 03:23:14;;;;;;;23.10;13.25;;;4.10;86.90;;;;;;5042267;28;19916;-45
2021/12/25 03:25:41;;;;;;;23.00;13.45;;;4.10;86.90;;;;;;5042081;28;20029;-42
2021/12/25 03:28:06;;;;;;;25.38;13.85;;;4.10;86.80;;;;;;5042650;28;20030;-45
2021/12/25 03:30:37;;;;;;;23.15;13.48;;;4.20;86.70;;;;;;5042198;28;20037;-43
2021/12/25 03:33:05;;;;;;;24.75;13.95;;;4.20;86.70;;;;;;5042477;28;20369;-46
2021/12/25 03:35:31;;;;;;;22.33;13.63;;;4.20;86.60;;;;;;5042456;28;20052;-46
2021/12/25 03:37:56;;;;;;;23.33;13.20;;;4.30;86.60;;;;;;5042184;28;20333;-43
2021/12/25 03:40:22;;;;;;;20.65;12.55;;;4.30;86.30;;;;;;5042523;28;20037;-47
2021/12/25 03:42:48;;;;;;;22.38;12.90;;;4.40;86.30;;;;;;5042454;28;20487;-46
2021/12/25 03:45:16;;;;;;;22.17;12.63;;;4.40;86.30;;;;;;5042304;28;20037;-43
2021/12/25 03:47:42;;;;;;;21.15;12.05;;;4.40;86.30;;;;;;5042125;28;20067;-43
2021/12/25 03:58:36;;;;;;;20.23;11.95;;;4.60;85.40;;;;;;5042229;28;20033;-44
2021/12/25 04:01:24;;;;;;;20.38;11.32;;;4.70;85.30;;;;;;5041803;28;20029;-44
2021/12/25 04:04:05;;;;;;;21.70;12.27;;;4.70;85.20;;;;;;5042221;28;20033;-42
2021/12/25 04:06:31;;;;;;;;;;;4.80;84.80;;;;;;5042571;28;20026;-43
2021/12/25 04:08:58;;;;;;;22.80;11.02;;;4.80;85.20;;;;;;5042041;28;20352;-45
2021/12/25 04:11:29;;;;;;;21.73;11.85;;;4.80;84.80;;;;;;5041888;28;20386;-45
2021/12/25 04:13:56;;;;;;;17.83;11.43;;;4.80;84.60;;;;;;5041962;28;20037;-44
2021/12/25 04:16:22;;;;;;;21.35;12.27;;;4.90;84.20;;;;;;5042130;28;20056;-45
2021/12/25 04:18:48;;;;;;;19.75;11.15;;;4.90;83.90;;;;;;5041761;28;20360;-45
2021/12/25 04:21:15;;;;;;;19.60;11.40;;;5.00;83.80;;;;;;5041974;28;20037;-46
2021/12/25 04:23:42;;;;;;;21.15;11.85;;;5.00;83.50;;;;;;5040761;28;20038;-47
2021/12/25 04:26:09;;;;;;;18.83;11.07;;;5.00;83.30;;;;;;5037992;28;20060;-44
2021/12/25 04:28:41;;;;;;;19.60;11.32;;;5.10;83.60;;;;;;5038641;28;20075;-44
2021/12/25 05:01:46;;;;;;;17.27;9.80;;;5.40;81.00;;;;;;5039427;28;20036;-42
2021/12/25 05:04:19;;;;;;;21.40;12.57;;;5.50;80.90;;;;;;5038044;28;20365;-42
2021/12/25 05:06:45;;;;;;;24.73;12.52;;;5.50;80.90;;;;;;5038245;28;20368;-42
2021/12/25 05:09:10;;;;;;;18.17;10.52;;;5.50;80.90;;;;;;5037824;28;20030;-45
2021/12/25 05:11:36;;;;;;;16.75;10.70;;;5.50;80.70;;;;;;5037946;28;20056;-43
2021/12/25 05:14:02;;;;;;;18.10;10.73;;;5.60;80.40;;;;;;5037572;28;20037;-43
2021/12/25 05:16:27;;;;;;;17.27;9.82;;;5.60;80.10;;;;;;5037715;28;20034;-44
2021/12/25 05:18:54;;;;;;;17.40;10.23;;;5.60;80.00;;;;;;5037658;28;20223;-43
2021/12/25 05:21:21;;;;;;;21.58;13.25;;;5.60;79.90;;;;;;5037469;28;20025;-46
2021/12/25 05:23:47;;;;;;;22.65;12.70;;;5.60;79.90;;;;;;5037428;28;20116;-46
2021/12/25 05:26:13;;;;;;;19.00;11.50;;;5.70;79.50;;;;;;5037814;28;20034;-45
2021/12/25 05:28:41;;;;;;;18.33;11.40;;;5.60;79.60;;;;;;5037655;28;20056;-45
2021/12/25 05:31:08;;;;;;;21.45;10.60;;;5.60;79.40;;;;;;5037314;28;20082;-46
2021/12/25 05:33:35;;;;;;;18.60;10.60;;;5.70;79.30;;;;;;5037247;28;20036;-48
2021/12/25 05:36:01;;;;;;;17.35;10.52;;;5.60;79.20;;;;;;5037264;28;20322;-43
2021/12/25 05:38:27;;;;;;;18.80;10.32;;;5.60;79.20;;;;;;5037620;28;20133;-46
2021/12/25 05:40:52;;;;;;;21.27;10.90;;;5.60;79.20;;;;;;5036890;28;20414;-45
2021/12/25 05:43:18;;;;;;;19.30;10.43;;;5.60;79.20;;;;;;5036764;28;20078;-47
2021/12/25 05:45:44;;;;;;;20.98;11.27;;;5.60;79.30;;;;;;5036935;28;20099;-45
2021/12/25 05:48:10;;;;;;;15.63;9.73;;;5.70;79.30;;;;;;5037064;28;20029;-45
2021/12/25 05:50:37;;;;;;;16.60;10.13;;;5.70;79.20;;;;;;5036719;28;20031;-44
2021/12/25 05:53:03;;;;;;;22.42;10.75;;;5.70;79.30;;;;;;5037029;28;20072;-45
2021/12/25 05:55:29;;;;;;;15.82;9.60;;;5.70;79.10;;;;;;5036752;28;20048;-44
2021/12/25 05:57:55;;;;;;;18.15;10.80;;;5.70;79.10;;;;;;5036703;28;20037;-42
2021/12/25 06:00:23;;;;;;;16.35;9.30;;;5.70;79.10;;;;;;5036722;28;20037;-44
2021/12/25 06:02:50;;;;;;;19.58;10.13;;;5.70;78.90;;;;;;5036533;28;20021;-47
2021/12/25 06:05:16;;;;;;;16.90;10.10;;;5.70;78.80;;;;;;5037020;28;20088;-43
2021/12/25 06:07:42;;;;;;;17.90;9.88;;;5.70;78.70;;;;;;5036395;28;20034;-43
2021/12/25 06:10:10;;;;;;;15.02;9.80;;;5.80;78.70;;;;;;5036617;28;20030;-42
2021/12/25 06:12:38;;;;;;;22.50;11.35;;;5.70;78.70;;;;;;5036824;28;20110;-43
2021/12/25 06:15:12;;;;;;;20.33;10.20;;;5.70;78.70;;;;;;5036258;28;20030;-44
2021/12/25 06:17:38;;;;;;;16.40;9.68;;;5.70;78.70;;;;;;5036545;28;20453;-43
2021/12/25 06:20:05;;;;;;;16.67;10.32;;;5.70;78.70;;;;;;5036616;28;20056;-46
2021/12/25 06:22:31;;;;;;;17.38;10.43;;;5.70;78.60;;;;;;5036064;28;20029;-43
2021/12/25 06:24:57;;;;;;;20.00;10.63;;;5.70;78.70;;;;;;5036412;28;20040;-45
2021/12/25 06:27:23;;;;;;;17.45;10.55;;;5.80;78.80;;;;;;5036421;28;20029;-44
2021/12/25 06:29:50;;;;;;;23.65;10.85;;;5.80;78.70;;;;;;5036332;28;20037;-48
2021/12/25 06:32:16;;;;;;;14.18;9.52;;;5.80;78.60;;;;;;5036272;28;20422;-43
2021/12/25 06:34:42;;;;;;;15.77;9.52;;;5.80;78.40;;;;;;5036269;28;20041;-49
2021/12/25 06:37:07;;;;;;;19.40;10.10;;;5.90;78.20;;;;;;5036206;28;20026;-45
2021/12/25 06:39:33;;;;;;;16.65;9.68;;;5.90;78.20;;;;;;5036211;28;20040;-45
2021/12/25 06:41:59;;;;;;;14.80;9.00;;;5.90;78.20;;;;;;5035932;28;20314;-44
2021/12/25 06:44:27;;;;;;;12.98;8.45;;;5.90;78.10;;;;;;5036029;28;20186;-45
2021/12/25 06:46:53;;;;;;;21.92;10.90;;;5.90;78.70;;;;;;5035803;28;20037;-45
2021/12/25 06:49:19;;;;;;;22.02;10.07;;;5.90;78.10;;;;;;5035903;28;20030;-44
2021/12/25 06:51:45;;;;;;;15.25;8.57;;;5.90;78.10;;;;;;5035888;28;20029;-48
2021/12/25 06:54:11;;;;;;;14.75;8.27;;;5.90;78.00;;;;;;5035625;28;20084;-43
2021/12/25 06:56:36;;;;;;;14.90;8.07;;;6.00;77.90;;;;;;5035738;28;20045;-46
2021/12/25 06:59:02;;;;;;;13.73;7.40;;;6.00;77.70;;;;;;5035693;28;20041;-44
2021/12/25 07:01:28;;;;;;;13.77;7.55;;;6.00;77.40;;;;;;5035512;28;20026;-44
2021/12/25 07:03:54;;;;;;;13.52;7.65;;;6.00;77.20;;;;;;5035702;28;20087;-45
2021/12/25 07:06:21;;;;;;;13.57;7.28;;;6.00;77.30;;;;;;5035641;28;20350;-46
2021/12/25 07:08:47;;;;;;;18.20;8.55;;;6.00;77.20;;;;;;5035339;28;20464;-45
2021/12/25 07:11:13;;;;;;;12.15;6.72;;;6.10;77.20;;;;;;5035746;28;20392;-43
2021/12/25 07:13:43;;;;;;;14.63;7.57;;;6.10;77.20;;;;;;5035657;28;20057;-44
2021/12/25 07:16:09;;;;;;;12.73;6.95;;;6.10;77.00;;;;;;5035687;28;20104;-43
2021/12/25 07:18:35;;;;;;;16.27;7.68;;;6.10;76.80;;;;;;5035387;28;20033;-42
2021/12/25 07:21:01;;;;;;;11.80;7.22;;;6.10;76.70;;;;;;5035632;28;20029;-44
2021/12/25 07:23:27;;;;;;;17.48;8.82;;;6.10;76.50;;;;;;5035985;28;20025;-42
2021/12/25 07:25:52;;;;;;;12.07;5.93;;;6.10;76.60;;;;;;5035262;28;20544;-45
2021/12/25 07:28:18;;;;;;;10.48;5.45;;;6.20;76.10;;;;;;5035467;28;20109;-42
2021/12/25 07:30:44;;;;;;;10.85;4.97;;;6.10;75.10;;;;;;5035105;28;20033;-45
2021/12/25 07:33:10;;;;;;;9.23;4.78;;;6.10;74.80;;;;;;5035615;28;20029;-46
2021/12/25 07:35:36;;;;;;;7.70;5.00;;;6.10;74.50;;;;;;5035680;28;20025;-45
2021/12/25 07:38:01;;;;;;;8.35;4.78;;;6.10;74.00;;;;;;5035443;28;20029;-43
2021/12/25 07:40:27;;;;;;;8.10;4.60;;;6.10;74.00;;;;;;5035656;28;20057;-42
2021/12/25 07:42:54;;;;;;;7.78;3.95;;;6.10;73.70;;;;;;5034117;28;20033;-43
2021/12/25 07:45:20;;;;;;;5.65;3.35;;;6.00;72.90;;;;;;5035526;28;20041;-45
2021/12/25 07:47:51;;;;;;;7.47;3.90;;;6.00;72.50;;;;;;5035411;28;20033;-42
2021/12/25 07:50:16;;;;;;;8.02;3.85;;;6.00;72.30;;;;;;5035567;28;20295;-46
2021/12/25 07:52:42;;;;;;;9.15;3.75;;;6.00;72.20;;;;;;5035569;28;20040;-44
2021/12/25 07:55:09;;;;;;;22.58;4.22;;;6.00;72.20;;;;;;5035011;28;20129;-46
2021/12/25 07:57:35;;;;;;;5.25;3.40;;;6.00;72.20;;;;;;5035238;28;20040;-44
2021/12/25 08:00:02;;;;;;;17.92;3.55;;;6.00;72.10;;;;;;5038337;28;20029;-43
2021/12/25 08:02:27;;;;;;;4.82;3.03;;;6.00;71.40;;;;;;5039057;28;20341;-44
2021/12/25 08:04:53;;;;;;;6.32;3.00;;;6.00;71.10;;;;;;5038772;28;20052;-44
2021/12/25 08:07:19;;;;;;;3.72;2.67;;;5.90;70.60;;;;;;5038879;28;20040;-43
2021/12/25 08:09:44;;;;;;;9.88;3.47;;;5.90;70.50;;;;;;5038689;28;20132;-43
2021/12/25 08:12:10;;;;;;;8.57;3.58;;;5.90;70.40;;;;;;5038690;28;20033;-46
2021/12/25 08:14:36;;;;;;;6.00;3.45;;;5.90;70.20;;;;;;5038792;28;20045;-42
2021/12/25 08:17:05;;;;;;;8.45;3.88;;;5.80;70.20;;;;;;5038609;28;20432;-45
2021/12/25 08:19:31;;;;;;;6.95;4.10;;;5.80;69.80;;;;;;5038721;28;20044;-45
2021/12/25 08:21:56;;;;;;;6.85;3.65;;;5.70;69.90;;;;;;5038728;28;20037;-49
2021/12/25 08:24:22;;;;;;;6.78;3.65;;;5.70;69.70;;;;;;5038270;28;20045;-45
2021/12/25 08:26:49;;;;;;;7.22;4.07;;;5.60;69.20;;;;;;5038534;28;20041;-44
2021/12/25 08:29:15;;;;;;;5.55;3.33;;;5.60;68.80;;;;;;5038260;28;20033;-47
2021/12/25 08:31:41;;;;;;;7.25;4.13;;;5.60;68.50;;;;;;5038446;28;20117;-45
2021/12/25 08:34:09;;;;;;;10.05;6.57;;;5.50;68.20;;;;;;5038451;28;20159;-43
2021/12/25 08:36:35;;;;;;;7.80;3.72;;;5.50;67.60;;;;;;5038719;28;20033;-43
2021/12/25 08:39:01;;;;;;;5.45;3.60;;;5.50;67.50;;;;;;5038499;28;20037;-45
2021/12/25 08:41:29;;;;;;;7.30;3.50;;;5.50;67.30;;;;;;5038404;28;20177;-45
2021/12/25 08:44:06;;;;;;;9.00;4.03;;;5.40;66.70;;;;;;5038042;28;20315;-46
2021/12/25 08:46:44;;;;;;;7.95;3.55;;;5.40;66.80;;;;;;5038552;28;20037;-45
2021/12/25 08:49:16;;;;;;;6.53;3.80;;;5.30;66.30;;;;;;5038223;28;20377;-43
2021/12/25 08:51:43;;;;;;;11.50;3.40;;;5.30;66.10;;;;;;5038495;28;20033;-41
2021/12/25 08:54:09;;;;;;;6.78;3.80;;;5.30;65.60;;;;;;5037799;28;20038;-45
2021/12/25 08:56:35;;;;;;;6.53;3.67;;;5.30;65.70;;;;;;5037920;28;20327;-43
2021/12/25 08:59:01;;;;;;;6.30;3.22;;;5.30;65.90;;;;;;5037985;28;20042;-44
2021/12/25 09:01:26;;;;;;;14.63;3.78;;;5.20;65.60;;;;;;5037963;28;20470;-42
2021/12/25 09:03:55;;;;;;;5.53;3.25;;;5.30;65.70;;;;;;5037853;28;20065;-45
2021/12/25 09:06:21;;;;;;;7.05;3.72;;;5.30;65.20;;;;;;5037824;28;20029;-44
2021/12/25 09:08:46;;;;;;;9.65;3.15;;;5.30;64.80;;;;;;5037568;28;20042;-45
2021/12/25 09:11:12;;;;;;;5.20;3.03;;;5.30;64.60;;;;;;5036992;28;20029;-44
2021/12/25 09:13:38;;;;;;;10.25;3.67;;;5.30;64.50;;;;;;5037604;28;20034;-44
2021/12/25 09:16:04;;;;;;;5.00;3.30;;;5.30;64.50;;;;;;5037529;28;20031;-41
2021/12/25 09:18:30;;;;;;;8.63;3.83;;;5.30;64.30;;;;;;5037469;28;20034;-41
2021/12/25 09:20:56;;;;;;;4.85;3.33;;;5.30;64.50;;;;;;5037637;28;20025;-42
2021/12/25 09:23:24;;;;;;;8.05;3.90;;;5.30;64.10;;;;;;5037427;28;20025;-48
2021/12/25 09:25:50;;;;;;;12.52;4.20;;;5.40;64.40;;;;;;5036912;28;20398;-41
2021/12/25 09:28:15;;;;;;;5.20;3.38;;;5.40;64.60;;;;;;5037270;28;20033;-42
2021/12/25 09:30:42;;;;;;;6.07;3.50;;;5.40;64.50;;;;;;5037328;28;20108;-42
2021/12/25 09:33:08;;;;;;;6.03;3.40;;;5.40;64.50;;;;;;5037481;28;20053;-41
2021/12/25 09:35:35;;;;;;;6.35;3.90;;;5.40;64.40;;;;;;5037205;28;20021;-45
2021/12/25 09:38:00;;;;;;;5.93;3.67;;;5.40;63.80;;;;;;5037279;28;20029;-44
2021/12/25 09:40:26;;;;;;;5.97;3.83;;;5.40;63.80;;;;;;5037071;28;20375;-42
2021/12/25 09:42:53;;;;;;;7.75;4.40;;;5.30;63.70;;;;;;5036912;28;20037;-44
2021/12/25 09:45:18;;;;;;;12.27;4.43;;;5.30;63.70;;;;;;5037205;28;20042;-44
2021/12/25 09:47:44;;;;;;;6.68;4.57;;;5.30;63.80;;;;;;5037111;28;20393;-42
2021/12/25 09:50:10;;;;;;;9.20;4.93;;;5.20;64.00;;;;;;5036992;28;20033;-43
2021/12/25 09:52:36;;;;;;;11.05;5.55;;;5.20;64.00;;;;;;5036843;28;20051;-43
2021/12/25 09:55:03;;;;;;;8.20;5.00;;;5.20;63.90;;;;;;5036593;28;20038;-44
2021/12/25 09:57:29;;;;;;;13.40;4.82;;;5.20;63.60;;;;;;5036925;28;20077;-42
2021/12/25 09:59:55;;;;;;;9.18;5.80;;;5.20;63.70;;;;;;5036662;28;20064;-42
2021/12/25 10:02:21;;;;;;;9.98;5.63;;;5.10;63.60;;;;;;5036568;28;20378;-42
2021/12/25 10:04:50;;;;;;;9.32;5.47;;;5.10;64.00;;;;;;5036691;28;20060;-45
2021/12/25 10:07:25;;;;;;;13.65;8.60;;;5.10;63.90;;;;;;5036799;28;20030;-42
2021/12/25 10:10:03;;;;;;;14.07;8.60;;;5.10;64.00;;;;;;5036480;28;20042;-42
2021/12/25 10:12:35;;;;;;;22.55;9.85;;;5.10;64.30;;;;;;5036864;28;20080;-45
2021/12/25 10:15:01;;;;;;;16.00;7.97;;;5.10;64.70;;;;;;5036518;28;20037;-47
2021/12/25 10:17:30;;;;;;;11.50;6.07;;;5.10;64.30;;;;;;5036137;28;20033;-45
2021/12/25 10:20:00;;;;;;;12.55;6.53;;;5.10;63.90;;;;;;5036117;28;20040;-41
2021/12/25 10:22:26;;;;;;;20.25;8.98;;;5.10;64.00;;;;;;5035534;28;20091;-45
2021/12/25 10:25:10;;;;;;;19.65;7.10;;;5.00;64.10;;;;;;5036385;28;20229;-42
2021/12/25 10:27:37;;;;;;;9.57;5.82;;;5.10;64.40;;;;;;5036709;28;20060;-45
2021/12/25 10:30:06;;;;;;;10.75;6.50;;;5.00;64.10;;;;;;5036255;28;20357;-45
2021/12/25 10:32:38;;;;;;;12.50;6.53;;;5.00;63.90;;;;;;5036472;28;20061;-43
2021/12/25 10:35:16;;;;;;;10.35;6.50;;;5.00;64.20;;;;;;5035994;28;20078;-41
2021/12/25 10:37:44;;;;;;;13.27;8.13;;;5.00;64.00;;;;;;5036189;28;20037;-41
2021/12/25 10:40:32;;;;;;;12.20;6.15;;;5.00;64.20;;;;;;5036203;28;20422;-42
2021/12/25 10:43:01;;;;;;;17.27;8.40;;;5.00;64.10;;;;;;5035789;28;20021;-45
2021/12/25 10:45:29;;;;;;;22.95;12.25;;;5.00;64.60;;;;;;5035567;28;20114;-44
2021/12/25 10:48:06;;;;;;;13.90;8.05;;;5.00;64.60;;;;;;5036025;28;20083;-46
2021/12/25 10:50:43;;;;;;;10.68;7.03;;;5.10;64.40;;;;;;5035901;28;20033;-42
2021/12/25 10:53:42;;;;;;;12.63;7.47;;;5.10;64.10;;;;;;5036023;28;20060;-42
2021/12/25 10:56:12;;;;;;;12.30;6.43;;;5.10;64.40;;;;;;5034545;28;20038;-44
2021/12/25 10:58:39;;;;;;;12.88;6.78;;;5.20;64.70;;;;;;5035657;28;20030;-44
2021/12/25 11:01:07;;;;;;;11.57;6.38;;;5.20;64.70;;;;;;5035698;28;20268;-46
2021/12/25 11:03:36;;;;;;;10.55;6.38;;;5.20;64.40;;;;;;5035706;28;20041;-43
2021/12/25 11:06:16;;;;;;;13.32;6.65;;;5.30;64.00;;;;;;5035654;28;20170;-45
2021/12/25 11:08:42;;;;;;;13.95;8.35;;;5.30;63.70;;;;;;5035510;28;20037;-44
2021/12/25 11:11:10;;;;;;;12.15;7.18;;;5.20;64.00;;;;;;5035426;28;20053;-44
2021/12/25 11:13:44;;;;;;;13.93;7.63;;;5.30;64.10;;;;;;5035533;28;20026;-41
2021/12/25 11:16:17;;;;;;;12.52;6.25;;;5.30;64.30;;;;;;5035567;28;20057;-42
2021/12/25 11:19:06;;;;;;;9.82;5.80;;;5.30;64.20;;;;;;5035223;28;20076;-42
2021/12/25 11:21:36;;;;;;;9.07;6.03;;;5.30;63.90;;;;;;5035447;28;20041;-41
2021/12/25 11:24:03;;;;;;;13.25;7.05;;;5.30;63.70;;;;;;5035393;28;20124;-42
2021/12/25 11:26:29;;;;;;;14.30;6.72;;;5.30;63.90;;;;;;5035289;28;20418;-42
2021/12/25 11:28:55;;;;;;;11.65;6.80;;;5.40;64.10;;;;;;5035769;28;20082;-43
2021/12/25 11:31:20;;;;;;;12.27;6.50;;;5.40;64.00;;;;;;5035520;28;20033;-44
2021/12/25 11:33:46;;;;;;;15.73;6.88;;;5.30;63.80;;;;;;5036452;28;20107;-41
2021/12/25 11:36:12;;;;;;;13.75;6.57;;;5.30;64.00;;;;;;5039237;28;20616;-43
2021/12/25 11:38:37;;;;;;;13.82;6.78;;;5.30;64.10;;;;;;5039455;28;20067;-45
2021/12/25 11:41:08;;;;;;;10.82;5.88;;;5.30;64.10;;;;;;5039210;28;20413;-44
2021/12/25 11:43:40;;;;;;;12.70;6.63;;;5.30;64.00;;;;;;5039209;28;20029;-41
2021/12/25 11:46:08;;;;;;;11.50;6.40;;;5.30;64.10;;;;;;5039331;28;20132;-47
2021/12/25 11:48:35;;;;;;;9.77;6.07;;;5.30;64.10;;;;;;5038926;28;20044;-47
2021/12/25 11:51:01;;;;;;;11.38;6.03;;;5.30;64.00;;;;;;5039071;28;20404;-44
2021/12/25 11:58:54;;;;;;;14.70;7.25;;;5.20;64.00;;;;;;5039096;28;20353;-45
2021/12/25 12:01:32;;;;;;;9.23;5.75;;;5.20;64.30;;;;;;5039069;28;20026;-45
2021/12/25 12:04:15;;;;;;;12.85;5.78;;;5.20;63.90;;;;;;5038462;28;20037;-45
2021/12/25 12:06:46;;;;;;;10.60;7.00;;;5.10;63.80;;;;;;5038634;28;20406;-42
2021/12/25 12:09:22;;;;;;;10.55;6.30;;;5.10;64.20;;;;;;5038823;28;20460;-46
2021/12/25 12:12:03;;;;;;;10.77;5.93;;;5.10;64.10;;;;;;5038803;28;20045;-42
2021/12/25 12:14:29;;;;;;;13.38;6.65;;;5.10;64.00;;;;;;5038765;28;20029;-45
2021/12/25 12:17:08;;;;;;;10.20;6.00;;;5.00;64.10;;;;;;5038482;28;20033;-48
2021/12/25 12:19:37;;;;;;;14.55;7.63;;;5.00;64.30;;;;;;5038849;28;20040;-41
2021/12/25 12:22:18;;;;;;;11.30;6.38;;;4.90;64.50;;;;;;5038502;28;20044;-45
2021/12/25 12:24:51;;;;;;;;;;;4.90;64.90;;;;;;5039136;28;20095;-42
2021/12/25 12:27:39;;;;;;;13.00;6.63;;;4.80;65.10;;;;;;5038798;28;19909;-44
2021/12/25 12:30:11;;;;;;;11.90;6.88;;;4.70;65.60;;;;;;5038699;28;20029;-43
2021/12/25 12:32:43;;;;;;;13.18;7.18;;;4.60;65.70;;;;;;5038333;28;20030;-42
2021/12/25 12:35:42;;;;;;;12.85;7.43;;;4.60;65.90;;;;;;5038691;28;20321;-47
2021/12/25 12:38:40;;;;;;;16.52;7.65;;;4.40;66.30;;;;;;5037050;28;20041;-46
2021/12/25 12:41:16;;;;;;;16.40;7.00;;;4.40;66.90;;;;;;5038522;28;20030;-45
2021/12/25 12:44:14;;;;;;;13.07;7.47;;;4.30;67.60;;;;;;5038331;28;20116;-41
2021/12/25 12:46:52;;;;;;;13.45;7.45;;;4.20;68.40;;;;;;5037251;28;20448;-44
2021/12/25 12:49:24;;;;;;;21.67;8.15;;;4.10;69.70;;;;;;5038199;28;20037;-44
2021/12/25 12:52:27;;;;;;;10.32;6.30;;;3.90;70.20;;;;;;5038124;28;20048;-42
2021/12/25 12:54:59;;;;;;;20.15;7.45;;;3.80;71.00;;;;;;5037996;28;20033;-42
2021/12/25 12:57:28;;;;;;;13.45;5.85;;;3.70;71.40;;;;;;5037942;28;20061;-46
2021/12/25 12:59:56;;;;;;;18.15;7.47;;;3.60;71.70;;;;;;5037964;28;20040;-46
2021/12/25 13:02:23;;;;;;;10.98;7.03;;;3.50;72.10;;;;;;5037794;28;20029;-42
2021/12/25 13:04:52;;;;;;;31.58;15.25;;;3.40;72.60;;;;;;5037906;28;20038;-44
2021/12/25 13:07:20;;;;;;;23.20;10.02;;;3.30;73.00;;;;;;5037915;28;20109;-42
2021/12/25 13:09:57;;;;;;;13.07;8.30;;;3.30;73.50;;;;;;5037816;28;20322;-42
2021/12/25 13:15:04;;;;;;;14.82;7.07;;;3.20;73.90;;;;;;5037713;28;20040;-45
2021/12/25 13:17:30;;;;;;;15.23;7.05;;;3.20;74.10;;;;;;5037796;28;20040;-47
2021/12/25 13:19:56;;;;;;;20.73;7.57;;;3.10;74.30;;;;;;5037702;28;20057;-42
2021/12/25 13:22:22;;;;;;;16.25;7.35;;;3.10;74.50;;;;;;5037373;28;20448;-41
2021/12/25 13:24:54;;;;;;;23.90;8.45;;;3.10;74.60;;;;;;5037495;28;20037;-43
2021/12/25 13:27:20;;;;;;;14.63;7.03;;;3.10;74.80;;;;;;5037595;28;20040;-44
2021/12/25 13:29:45;;;;;;;16.98;7.97;;;3.10;74.70;;;;;;5037159;28;20310;-41
2021/12/25 13:32:11;;;;;;;13.02;7.22;;;3.10;74.80;;;;;;5037927;28;20029;-43
2021/12/25 13:34:39;;;;;;;19.65;9.80;;;3.10;74.90;;;;;;5037047;28;20051;-42
2021/12/25 13:37:09;;;;;;;17.73;9.10;;;3.10;75.00;;;;;;5037237;28;20034;-45
2021/12/25 13:39:37;;;;;;;10.95;6.82;;;3.10;74.90;;;;;;5037270;28;20272;-45
2021/12/25 13:42:11;;;;;;;13.93;8.60;;;3.00;74.80;;;;;;5037243;28;20437;-43
2021/12/25 13:44:39;;;;;;;12.75;7.38;;;3.00;75.00;;;;;;5037078;28;20049;-46
2021/12/25 13:47:14;;;;;;;18.30;8.63;;;3.00;75.00;;;;;;5036916;28;20425;-43
2021/12/25 13:49:41;;;;;;;19.05;8.70;;;3.00;75.10;;;;;;5036834;28;20335;-43
2021/12/25 13:52:27;;;;;;;15.45;8.55;;;3.00;75.20;;;;;;5036944;28;20421;-44
2021/12/25 13:54:55;;;;;;;16.42;8.73;;;2.90;75.30;;;;;;5036706;28;20044;-44
2021/12/25 13:57:23;;;;;;;17.88;8.63;;;2.90;75.40;;;;;;5036565;28;20045;-44
2021/12/25 13:59:53;;;;;;;12.60;7.75;;;2.90;75.50;;;;;;5036598;28;20355;-47
2021/12/25 14:02:21;;;;;;;12.98;7.13;;;2.90;75.50;;;;;;5036546;28;20314;-41
2021/12/25 14:04:51;;;;;;;14.68;7.80;;;2.90;75.50;;;;;;5036320;28;20048;-43
2021/12/25 14:07:26;;;;;;;16.88;8.15;;;2.90;75.60;;;;;;5036478;28;20044;-46
2021/12/25 14:10:09;;;;;;;16.65;9.15;;;2.90;75.70;;;;;;5036423;28;20326;-43